createdAt,value
2018-05-21T00:00:08.746Z,0
2018-05-21T00:01:08.207Z,0
2018-05-21T00:02:08.189Z,0
2018-05-21T00:03:08.682Z,0
2018-05-21T00:04:08.452Z,0
2018-05-21T00:05:07.919Z,0
2018-05-21T00:06:08.196Z,0
2018-05-21T00:07:08.413Z,0
2018-05-21T00:08:08.690Z,0
2018-05-21T00:09:08.143Z,0
2018-05-21T00:10:08.163Z,0
2018-05-21T00:11:08.388Z,0
2018-05-21T00:12:08.664Z,0
2018-05-21T00:13:08.381Z,0
2018-05-21T00:14:08.385Z,0
2018-05-21T00:15:08.079Z,0
2018-05-21T00:16:08.375Z,0
2018-05-21T00:17:08.084Z,0
2018-05-21T00:18:08.066Z,0
2018-05-21T00:19:08.321Z,0
2018-05-21T00:20:08.604Z,0
2018-05-21T00:21:08.053Z,0
2018-05-21T00:22:08.331Z,0
2018-05-21T00:23:08.275Z,0
2018-05-21T00:24:08.361Z,0
2018-05-21T00:25:07.752Z,0
2018-05-21T00:26:08.024Z,0
2018-05-21T00:27:08.245Z,0
2018-05-21T00:28:08.283Z,0
2018-05-21T00:29:08.256Z,0
2018-05-21T00:30:08.002Z,0
2018-05-21T00:31:08.209Z,0
2018-05-21T00:32:08.203Z,0
2018-05-21T00:33:07.964Z,0
2018-05-21T00:34:08.221Z,0
2018-05-21T00:35:07.973Z,0
2018-05-21T00:36:08.188Z,0
2018-05-21T00:37:07.933Z,0
2018-05-21T00:38:08.156Z,0
2018-05-21T00:39:08.459Z,0
2018-05-21T00:40:07.913Z,0
2018-05-21T00:41:08.429Z,0
2018-05-21T00:42:07.902Z,0
2018-05-21T00:43:07.862Z,0
2018-05-21T00:44:08.158Z,0
2018-05-21T00:45:08.126Z,0
2018-05-21T00:46:08.414Z,0
2018-05-21T00:47:08.340Z,0
2018-05-21T00:48:08.338Z,0
2018-05-21T00:49:08.126Z,0
2018-05-21T00:50:08.094Z,0
2018-05-21T00:51:07.835Z,0
2018-05-21T00:52:07.799Z,0
2018-05-21T00:53:08.328Z,0
2018-05-21T00:54:07.807Z,0
2018-05-21T00:55:08.021Z,0
2018-05-21T00:56:08.056Z,0
2018-05-21T00:57:07.999Z,0
2018-05-21T00:58:08.283Z,0
2018-05-21T00:59:08.249Z,0
2018-05-21T01:00:08.026Z,0
2018-05-21T01:01:08.000Z,0
2018-05-21T01:02:08.255Z,0
2018-05-21T01:03:08.210Z,0
2018-05-21T01:04:08.217Z,0
2018-05-21T01:05:07.701Z,0
2018-05-21T01:06:07.965Z,0
2018-05-21T01:07:07.930Z,0
2018-05-21T01:08:08.218Z,0
2018-05-21T01:09:07.969Z,0
2018-05-21T01:10:07.682Z,0
2018-05-21T01:11:08.142Z,0
2018-05-21T01:12:07.975Z,0
2018-05-21T01:13:07.889Z,0
2018-05-21T01:14:08.155Z,0
2018-05-21T01:15:07.606Z,0
2018-05-21T01:16:08.159Z,0
2018-05-21T01:17:07.616Z,0
2018-05-21T01:18:07.863Z,0
2018-05-21T01:19:07.831Z,0
2018-05-21T01:20:07.567Z,0
2018-05-21T01:21:07.831Z,0
2018-05-21T01:22:07.572Z,0
2018-05-21T01:23:07.833Z,0
2018-05-21T01:24:07.786Z,0
2018-05-21T01:25:08.061Z,0
2018-05-21T01:26:07.520Z,0
2018-05-21T01:27:07.802Z,0
2018-05-21T01:28:07.514Z,0
2018-05-21T01:29:07.786Z,0
2018-05-21T01:30:07.758Z,0
2018-05-21T01:31:08.030Z,0
2018-05-21T01:32:07.983Z,0
2018-05-21T01:33:07.739Z,0
2018-05-21T01:34:07.730Z,0
2018-05-21T01:35:07.692Z,0
2018-05-21T01:36:07.940Z,0
2018-05-21T01:37:07.974Z,0
2018-05-21T01:38:07.699Z,0
2018-05-21T01:39:07.972Z,0
2018-05-21T01:40:07.656Z,0
2018-05-21T01:41:07.669Z,0
2018-05-21T01:42:07.901Z,0
2018-05-21T01:43:07.668Z,0
2018-05-21T01:44:07.876Z,0
2018-05-21T01:45:07.915Z,0
2018-05-21T01:46:07.620Z,0
2018-05-21T01:47:07.647Z,0
2018-05-21T01:48:07.330Z,0
2018-05-21T01:49:07.595Z,0
2018-05-21T01:50:07.857Z,0
2018-05-21T01:51:07.613Z,0
2018-05-21T01:52:07.589Z,0
2018-05-21T01:53:07.564Z,0
2018-05-21T01:54:07.556Z,0
2018-05-21T01:55:07.782Z,0
2018-05-21T01:56:07.823Z,0
2018-05-21T01:57:07.530Z,0
2018-05-21T01:58:07.767Z,0
2018-05-21T01:59:07.794Z,0
2018-05-21T02:00:07.740Z,0
2018-05-21T02:01:07.796Z,0
2018-05-21T02:02:07.733Z,0
2018-05-21T02:03:07.765Z,0
2018-05-21T02:04:07.702Z,0
2018-05-21T02:05:07.722Z,0
2018-05-21T02:06:07.446Z,0
2018-05-21T02:07:07.472Z,0
2018-05-21T02:08:07.455Z,4
2018-05-21T02:09:07.437Z,4
2018-05-21T02:10:07.153Z,4
2018-05-21T02:11:07.391Z,4
2018-05-21T02:12:07.699Z,4
2018-05-21T02:13:07.644Z,8
2018-05-21T02:14:07.409Z,0
2018-05-21T02:15:07.358Z,0
2018-05-21T02:16:07.392Z,0
2018-05-21T02:17:07.596Z,4
2018-05-21T02:18:07.358Z,4
2018-05-21T02:19:07.327Z,4
2018-05-21T02:20:07.548Z,0
2018-05-21T02:21:07.348Z,4
2018-05-21T02:22:07.583Z,4
2018-05-21T02:23:07.300Z,4
2018-05-21T02:24:07.314Z,8
2018-05-21T02:25:07.030Z,4
2018-05-21T02:26:07.527Z,8
2018-05-21T02:27:07.748Z,4
2018-05-21T02:28:07.540Z,8
2018-05-21T02:29:07.258Z,8
2018-05-21T02:30:07.538Z,12
2018-05-21T02:31:07.233Z,12
2018-05-21T02:32:07.535Z,16
2018-05-21T02:33:07.454Z,16
2018-05-21T02:34:07.236Z,16
2018-05-21T02:35:07.188Z,20
2018-05-21T02:36:07.221Z,24
2018-05-21T02:37:07.183Z,24
2018-05-21T02:38:06.944Z,28
2018-05-21T02:39:07.451Z,36
2018-05-21T02:40:07.190Z,40
2018-05-21T02:41:07.154Z,44
2018-05-21T02:42:07.138Z,48
2018-05-21T02:43:07.380Z,52
2018-05-21T02:44:07.403Z,64
2018-05-21T02:45:07.369Z,72
2018-05-21T02:46:07.387Z,76
2018-05-21T02:47:07.332Z,88
2018-05-21T02:48:07.365Z,96
2018-05-21T02:49:07.339Z,108
2018-05-21T02:50:07.065Z,116
2018-05-21T02:51:06.833Z,128
2018-05-21T02:52:07.311Z,140
2018-05-21T02:53:07.294Z,156
2018-05-21T02:54:07.035Z,172
2018-05-21T02:55:07.058Z,188
2018-05-21T02:56:07.034Z,204
2018-05-21T02:57:07.272Z,224
2018-05-21T02:58:07.249Z,248
2018-05-21T02:59:07.225Z,268
2018-05-21T03:00:07.002Z,292
2018-05-21T03:01:06.975Z,316
2018-05-21T03:02:06.987Z,340
2018-05-21T03:03:06.941Z,368
2018-05-21T03:04:07.224Z,396
2018-05-21T03:05:07.173Z,424
2018-05-21T03:06:07.242Z,460
2018-05-21T03:07:06.906Z,492
2018-05-21T03:08:07.204Z,528
2018-05-21T03:09:06.916Z,564
2018-05-21T03:10:06.670Z,604
2018-05-21T03:11:07.143Z,640
2018-05-21T03:12:06.864Z,684
2018-05-21T03:13:06.873Z,728
2018-05-21T03:14:07.130Z,772
2018-05-21T03:15:06.834Z,820
2018-05-21T03:16:06.605Z,868
2018-05-21T03:17:07.091Z,920
2018-05-21T03:18:06.852Z,972
2018-05-21T03:19:07.052Z,1028
2018-05-21T03:20:07.085Z,1084
2018-05-21T03:21:06.526Z,1136
2018-05-21T03:22:06.802Z,1192
2018-05-21T03:23:07.017Z,1244
2018-05-21T03:24:06.280Z,1296
2018-05-21T03:25:07.040Z,1344
2018-05-21T03:26:06.766Z,1400
2018-05-21T03:27:06.474Z,1460
2018-05-21T03:28:06.720Z,1524
2018-05-21T03:29:06.731Z,1592
2018-05-21T03:30:07.017Z,1660
2018-05-21T03:31:07.002Z,1728
2018-05-21T03:32:06.688Z,1808
2018-05-21T03:33:06.187Z,1888
2018-05-21T03:34:06.669Z,1968
2018-05-21T03:35:06.965Z,2056
2018-05-21T03:36:06.659Z,2192
2018-05-21T03:37:06.424Z,2344
2018-05-21T03:38:06.391Z,2492
2018-05-21T03:39:06.931Z,2664
2018-05-21T03:40:06.622Z,2880
2018-05-21T03:41:06.377Z,3104
2018-05-21T03:42:06.627Z,3296
2018-05-21T03:43:06.855Z,3508
2018-05-21T03:44:06.585Z,3664
2018-05-21T03:45:06.869Z,3792
2018-05-21T03:46:06.339Z,3936
2018-05-21T03:47:06.087Z,4060
2018-05-21T03:48:06.805Z,4204
2018-05-21T03:49:06.826Z,4356
2018-05-21T03:50:06.535Z,4584
2018-05-21T03:51:06.577Z,4756
2018-05-21T03:52:06.534Z,4860
2018-05-21T03:53:06.570Z,4976
2018-05-21T03:54:06.524Z,5156
2018-05-21T03:55:06.544Z,5440
2018-05-21T03:56:05.988Z,5612
2018-05-21T03:57:07.040Z,5776
2018-05-21T03:58:06.234Z,5928
2018-05-21T03:59:06.256Z,5996
2018-05-21T04:00:06.768Z,6080
2018-05-21T04:01:06.486Z,6128
2018-05-21T04:02:06.473Z,6356
2018-05-21T04:03:06.447Z,6412
2018-05-21T04:04:06.477Z,6556
2018-05-21T04:05:06.453Z,6516
2018-05-21T04:06:06.448Z,6856
2018-05-21T04:07:06.474Z,7172
2018-05-21T04:08:06.423Z,7116
2018-05-21T04:09:06.201Z,7596
2018-05-21T04:10:06.684Z,7788
2018-05-21T04:11:06.198Z,8172
2018-05-21T04:12:06.906Z,8404
2018-05-21T04:13:06.676Z,8296
2018-05-21T04:14:06.418Z,8632
2018-05-21T04:15:06.711Z,8488
2018-05-21T04:16:06.681Z,9160
2018-05-21T04:17:06.654Z,9364
2018-05-21T04:18:06.389Z,9480
2018-05-21T04:19:06.626Z,10228
2018-05-21T04:20:06.153Z,10352
2018-05-21T04:21:06.391Z,10616
2018-05-21T04:22:06.410Z,11032
2018-05-21T04:23:06.616Z,10732
2018-05-21T04:24:06.405Z,11108
2018-05-21T04:25:06.615Z,11216
2018-05-21T04:26:06.387Z,11652
2018-05-21T04:27:06.616Z,12252
2018-05-21T04:28:06.654Z,12284
2018-05-21T04:29:06.453Z,12828
2018-05-21T04:30:06.378Z,12720
2018-05-21T04:31:06.631Z,12724
2018-05-21T04:32:06.645Z,13316
2018-05-21T04:33:06.369Z,13120
2018-05-21T04:34:06.107Z,13856
2018-05-21T04:35:06.101Z,15296
2018-05-21T04:36:06.384Z,15744
2018-05-21T04:37:06.612Z,15840
2018-05-21T04:38:06.646Z,16288
2018-05-21T04:39:06.595Z,16704
2018-05-21T04:40:06.377Z,16736
2018-05-21T04:41:06.684Z,17088
2018-05-21T04:42:05.862Z,17504
2018-05-21T04:43:06.593Z,17312
2018-05-21T04:44:06.652Z,18176
2018-05-21T04:45:06.363Z,18112
2018-05-21T04:46:06.369Z,18464
2018-05-21T04:47:06.357Z,20288
2018-05-21T04:48:06.357Z,20096
2018-05-21T04:49:06.368Z,20384
2018-05-21T04:50:06.132Z,21472
2018-05-21T04:51:06.652Z,20480
2018-05-21T04:52:06.358Z,20128
2018-05-21T04:53:06.634Z,21504
2018-05-21T04:54:06.367Z,22208
2018-05-21T04:55:06.400Z,22080
2018-05-21T04:56:06.111Z,22720
2018-05-21T04:57:06.402Z,23008
2018-05-21T04:58:06.395Z,23680
2018-05-21T04:59:06.375Z,23840
2018-05-21T05:00:06.674Z,22624
2018-05-21T05:01:06.399Z,22432
2018-05-21T05:02:06.672Z,23648
2018-05-21T05:03:06.129Z,23840
2018-05-21T05:04:06.408Z,23584
2018-05-21T05:05:06.437Z,24096
2018-05-21T05:06:06.437Z,24064
2018-05-21T05:07:06.714Z,23680
2018-05-21T05:08:06.684Z,25664
2018-05-21T05:09:06.712Z,26784
2018-05-21T05:10:06.424Z,24960
2018-05-21T05:11:06.475Z,24672
2018-05-21T05:12:06.715Z,26304
2018-05-21T05:13:06.475Z,26304
2018-05-21T05:14:06.726Z,25536
2018-05-21T05:15:06.232Z,26912
2018-05-21T05:16:06.758Z,29216
2018-05-21T05:17:06.229Z,27616
2018-05-21T05:18:06.477Z,24704
2018-05-21T05:19:06.254Z,26464
2018-05-21T05:20:06.255Z,30112
2018-05-21T05:21:06.399Z,31104
2018-05-21T05:22:06.507Z,31008
2018-05-21T05:23:06.807Z,31648
2018-05-21T05:24:06.509Z,31776
2018-05-21T05:25:06.537Z,31200
2018-05-21T05:26:06.812Z,31456
2018-05-21T05:27:06.563Z,33056
2018-05-21T05:28:06.784Z,34496
2018-05-21T05:29:06.320Z,32928
2018-05-21T05:30:06.823Z,31744
2018-05-21T05:31:06.332Z,34720
2018-05-21T05:32:06.302Z,36736
2018-05-21T05:33:06.322Z,33920
2018-05-21T05:34:06.327Z,30688
2018-05-21T05:35:06.362Z,32160
2018-05-21T05:36:06.802Z,36736
2018-05-21T05:37:06.630Z,37664
2018-05-21T05:38:06.870Z,34496
2018-05-21T05:39:06.869Z,31648
2018-05-21T05:40:06.652Z,31552
2018-05-21T05:41:06.644Z,34304
2018-05-21T05:42:06.488Z,37600
2018-05-21T05:43:06.906Z,37792
2018-05-21T05:44:06.428Z,34944
2018-05-21T05:45:06.654Z,33152
2018-05-21T05:46:06.695Z,36128
2018-05-21T05:47:06.694Z,39040
2018-05-21T05:48:06.204Z,38240
2018-05-21T05:49:06.731Z,35424
2018-05-21T05:50:06.712Z,37312
2018-05-21T05:51:06.755Z,43456
2018-05-21T05:52:07.030Z,45312
2018-05-21T05:53:06.998Z,41344
2018-05-21T05:54:07.004Z,37984
2018-05-21T05:55:06.745Z,39616
2018-05-21T05:56:07.061Z,43200
2018-05-21T05:57:07.054Z,41568
2018-05-21T05:58:06.814Z,37280
2018-05-21T05:59:06.783Z,38048
2018-05-21T06:00:06.838Z,42016
2018-05-21T06:01:06.821Z,43200
2018-05-21T06:02:06.833Z,41120
2018-05-21T06:03:06.870Z,40352
2018-05-21T06:04:07.086Z,43872
2018-05-21T06:05:07.116Z,47072
2018-05-21T06:06:06.613Z,44000
2018-05-21T06:07:06.644Z,39712
2018-05-21T06:08:06.911Z,40608
2018-05-21T06:09:07.155Z,43520
2018-05-21T06:10:06.989Z,45248
2018-05-21T06:11:06.736Z,43104
2018-05-21T06:12:06.691Z,39520
2018-05-21T06:13:07.203Z,38720
2018-05-21T06:14:07.209Z,38944
2018-05-21T06:15:07.257Z,38080
2018-05-21T06:16:07.215Z,36544
2018-05-21T06:17:07.008Z,36704
2018-05-21T06:18:06.730Z,36800
2018-05-21T06:19:07.058Z,35072
2018-05-21T06:20:06.996Z,33632
2018-05-21T06:21:07.030Z,33792
2018-05-21T06:22:07.284Z,33952
2018-05-21T06:23:07.073Z,32928
2018-05-21T06:24:07.342Z,30240
2018-05-21T06:25:07.340Z,24512
2018-05-21T06:26:06.894Z,21056
2018-05-21T06:27:07.327Z,25088
2018-05-21T06:28:07.137Z,34464
2018-05-21T06:29:06.860Z,44960
2018-05-21T06:30:07.414Z,53920
2018-05-21T06:31:07.125Z,58720
2018-05-21T06:32:07.173Z,58368
2018-05-21T06:33:07.403Z,51584
2018-05-21T06:34:07.685Z,43904
2018-05-21T06:35:07.422Z,41856
2018-05-21T06:36:07.489Z,46336
2018-05-21T06:37:07.219Z,54720
2018-05-21T06:38:07.239Z,59968
2018-05-21T06:39:07.478Z,66752
2018-05-21T06:40:07.278Z,72256
2018-05-21T06:41:07.410Z,73856
2018-05-21T06:42:07.290Z,73856
2018-05-21T06:43:07.546Z,70240
2018-05-21T06:44:07.391Z,67776
2018-05-21T06:45:07.323Z,68576
2018-05-21T06:46:07.105Z,73600
2018-05-21T06:47:07.329Z,81088
2018-05-21T06:48:07.122Z,82048
2018-05-21T06:49:07.620Z,80288
2018-05-21T06:50:07.401Z,77280
2018-05-21T06:51:06.877Z,73696
2018-05-21T06:52:07.442Z,71616
2018-05-21T06:53:07.179Z,71712
2018-05-21T06:54:07.457Z,71296
2018-05-21T06:55:07.184Z,71776
2018-05-21T06:56:07.482Z,71488
2018-05-21T06:57:07.497Z,71200
2018-05-21T06:58:07.512Z,71712
2018-05-21T06:59:09.059Z,72704
2018-05-21T07:00:07.513Z,75008
2018-05-21T07:01:07.560Z,76480
2018-05-21T07:02:07.292Z,76160
2018-05-21T07:03:07.581Z,74656
2018-05-21T07:04:07.575Z,75936
2018-05-21T07:05:07.619Z,81120
2018-05-21T07:06:07.621Z,83456
2018-05-21T07:07:07.628Z,81984
2018-05-21T07:08:08.236Z,77184
2018-05-21T07:09:07.690Z,72320
2018-05-21T07:10:07.928Z,71232
2018-05-21T07:11:07.948Z,72352
2018-05-21T07:12:07.688Z,73440
2018-05-21T07:13:07.746Z,76224
2018-05-21T07:14:07.476Z,82432
2018-05-21T07:15:08.045Z,85696
2018-05-21T07:16:08.005Z,83168
2018-05-21T07:17:07.286Z,79168
2018-05-21T07:18:08.163Z,77984
2018-05-21T07:19:08.101Z,76992
2018-05-21T07:20:07.803Z,73056
2018-05-21T07:21:08.124Z,66752
2018-05-21T07:22:08.116Z,59936
2018-05-21T07:23:08.141Z,50432
2018-05-21T07:24:07.866Z,42720
2018-05-21T07:25:07.628Z,41024
2018-05-21T07:26:08.183Z,46432
2018-05-21T07:27:07.946Z,52288
2018-05-21T07:28:07.706Z,53408
2018-05-21T07:29:08.201Z,52704
2018-05-21T07:30:07.981Z,50560
2018-05-21T07:31:07.999Z,48352
2018-05-21T07:32:07.986Z,47680
2018-05-21T07:33:08.036Z,46784
2018-05-21T07:34:08.282Z,45408
2018-05-21T07:35:08.056Z,44800
2018-05-21T07:36:08.301Z,44896
2018-05-21T07:37:08.097Z,45888
2018-05-21T07:38:08.118Z,46112
2018-05-21T07:39:08.148Z,45024
2018-05-21T07:40:08.354Z,45088
2018-05-21T07:41:08.396Z,48128
2018-05-21T07:42:08.157Z,54176
2018-05-21T07:43:08.434Z,61344
2018-05-21T07:44:08.420Z,67584
2018-05-21T07:45:07.973Z,68192
2018-05-21T07:46:08.205Z,57632
2018-05-21T07:47:08.512Z,46432
2018-05-21T07:48:07.964Z,44320
2018-05-21T07:49:08.566Z,48384
2018-05-21T07:50:07.993Z,51200
2018-05-21T07:51:08.296Z,50432
2018-05-21T07:52:08.285Z,50016
2018-05-21T07:53:08.342Z,53312
2018-05-21T07:54:07.893Z,57792
2018-05-21T07:55:08.355Z,55872
2018-05-21T07:56:08.083Z,53120
2018-05-21T07:57:08.390Z,54880
2018-05-21T07:58:07.882Z,62112
2018-05-21T07:59:08.719Z,68224
2018-05-21T08:00:08.686Z,69280
2018-05-21T08:01:08.456Z,63616
2018-05-21T08:02:08.466Z,58688
2018-05-21T08:03:08.251Z,61504
2018-05-21T08:04:08.717Z,66560
2018-05-21T08:05:08.281Z,67008
2018-05-21T08:06:08.243Z,63424
2018-05-21T08:07:08.538Z,65536
2018-05-21T08:08:08.774Z,73856
2018-05-21T08:09:08.578Z,81536
2018-05-21T08:10:08.584Z,82976
2018-05-21T08:11:08.851Z,77888
2018-05-21T08:12:08.574Z,69952
2018-05-21T08:13:08.846Z,65440
2018-05-21T08:14:08.887Z,65120
2018-05-21T08:15:08.652Z,66720
2018-05-21T08:16:08.418Z,67936
2018-05-21T08:17:08.925Z,70944
2018-05-21T08:18:08.450Z,74400
2018-05-21T08:19:08.678Z,77632
2018-05-21T08:20:08.994Z,77888
2018-05-21T08:21:08.962Z,77152
2018-05-21T08:22:08.827Z,77696
2018-05-21T08:23:08.806Z,78976
2018-05-21T08:24:08.749Z,77280
2018-05-21T08:25:08.541Z,72672
2018-05-21T08:26:08.796Z,72384
2018-05-21T08:27:08.579Z,80704
2018-05-21T08:28:08.542Z,87072
2018-05-21T08:29:08.808Z,85664
2018-05-21T08:30:08.848Z,82144
2018-05-21T08:31:08.878Z,80096
2018-05-21T08:32:08.886Z,80544
2018-05-21T08:33:08.861Z,81280
2018-05-21T08:34:08.640Z,78272
2018-05-21T08:35:09.141Z,74560
2018-05-21T08:36:08.936Z,74944
2018-05-21T08:37:08.933Z,80736
2018-05-21T08:38:08.968Z,88800
2018-05-21T08:39:08.940Z,96448
2018-05-21T08:40:08.991Z,95904
2018-05-21T08:41:08.966Z,87808
2018-05-21T08:42:08.741Z,77408
2018-05-21T08:43:09.266Z,75168
2018-05-21T08:44:08.783Z,82016
2018-05-21T08:45:09.058Z,85696
2018-05-21T08:46:09.298Z,80608
2018-05-21T08:47:09.042Z,43552
2018-05-21T08:48:09.347Z,19872
2018-05-21T08:49:09.320Z,11324
2018-05-21T08:50:09.088Z,10760
2018-05-21T08:51:09.332Z,10292
2018-05-21T08:52:09.141Z,10156
2018-05-21T08:53:09.102Z,9988
2018-05-21T08:54:08.903Z,9688
2018-05-21T08:55:09.305Z,9656
2018-05-21T08:56:09.430Z,9592
2018-05-21T08:57:09.391Z,9324
2018-05-21T08:58:09.430Z,9276
2018-05-21T08:59:09.156Z,9164
2018-05-21T09:00:09.211Z,9156
2018-05-21T09:01:09.461Z,9240
2018-05-21T09:02:09.199Z,9300
2018-05-21T09:03:09.438Z,9520
2018-05-21T09:04:09.186Z,10292
2018-05-21T09:05:09.483Z,10040
2018-05-21T09:06:09.211Z,9060
2018-05-21T09:07:08.979Z,8764
2018-05-21T09:08:08.947Z,8820
2018-05-21T09:09:09.510Z,8868
2018-05-21T09:10:09.895Z,8936
2018-05-21T09:11:09.242Z,9152
2018-05-21T09:12:09.245Z,9112
2018-05-21T09:13:09.524Z,8920
2018-05-21T09:14:09.504Z,8968
2018-05-21T09:15:09.492Z,8972
2018-05-21T09:16:09.371Z,9096
2018-05-21T09:17:09.260Z,9280
2018-05-21T09:18:08.998Z,9148
2018-05-21T09:19:08.983Z,9076
2018-05-21T09:20:09.492Z,8956
2018-05-21T09:21:09.021Z,9256
2018-05-21T09:22:09.531Z,9520
2018-05-21T09:23:09.553Z,8996
2018-05-21T09:24:09.486Z,9148
2018-05-21T09:25:09.019Z,8668
2018-05-21T09:26:09.874Z,9716
2018-05-21T09:27:09.255Z,10388
2018-05-21T09:28:09.540Z,11808
2018-05-21T09:29:09.494Z,12832
2018-05-21T09:30:09.008Z,11512
2018-05-21T09:31:08.998Z,9572
2018-05-21T09:32:09.333Z,9052
2018-05-21T09:33:09.330Z,9028
2018-05-21T09:34:09.268Z,9108
2018-05-21T09:35:09.256Z,9344
2018-05-21T09:36:16.504Z,9824
2018-05-21T09:37:09.549Z,9884
2018-05-21T09:38:09.520Z,9336
2018-05-21T09:39:09.260Z,9016
2018-05-21T09:40:09.559Z,9000
2018-05-21T09:41:09.264Z,9000
2018-05-21T09:42:11.034Z,9492
2018-05-21T09:43:09.292Z,10532
2018-05-21T09:44:09.535Z,11516
2018-05-21T09:47:09.247Z,12260
2018-05-21T09:48:09.719Z,11252
2018-05-21T09:49:09.264Z,10212
2018-05-21T09:50:09.313Z,10300
2018-05-21T09:51:09.300Z,10004
2018-05-21T09:52:09.283Z,9184
2018-05-21T09:53:09.248Z,9124
2018-05-21T09:54:09.512Z,9160
2018-05-21T09:55:09.283Z,9732
2018-05-21T09:56:09.537Z,10768
2018-05-21T09:57:09.568Z,11916
2018-05-21T09:58:09.935Z,11756
2018-05-21T09:59:09.286Z,9856
2018-05-21T10:00:09.531Z,9032
2018-05-21T10:01:09.037Z,9028
2018-05-21T10:02:09.259Z,8668
2018-05-21T10:03:09.558Z,8980
2018-05-21T10:04:09.525Z,9532
2018-05-21T10:05:09.036Z,10124
2018-05-21T10:06:08.754Z,11092
2018-05-21T10:07:09.022Z,11644
2018-05-21T10:08:09.550Z,11312
2018-05-21T10:09:09.268Z,10916
2018-05-21T10:10:09.259Z,10432
2018-05-21T10:11:09.534Z,10536
2018-05-21T10:12:09.519Z,10044
2018-05-21T10:13:09.578Z,9332
2018-05-21T10:14:09.519Z,8836
2018-05-21T10:15:09.303Z,9148
2018-05-21T10:16:09.275Z,8812
2018-05-21T10:17:09.309Z,8124
2018-05-21T10:18:09.534Z,7924
2018-05-21T10:19:09.300Z,7636
2018-05-21T10:20:09.275Z,7568
2018-05-21T10:21:09.330Z,7632
2018-05-21T10:22:09.255Z,7668
2018-05-21T10:23:09.533Z,7668
2018-05-21T10:24:09.529Z,7724
2018-05-21T10:25:09.323Z,7548
2018-05-21T10:26:10.097Z,7304
2018-05-21T10:27:09.528Z,7248
2018-05-21T10:28:09.600Z,7128
2018-05-21T10:29:09.267Z,7052
2018-05-21T10:30:09.047Z,6980
2018-05-21T10:31:09.274Z,6948
2018-05-21T10:32:08.776Z,6912
2018-05-21T10:33:09.301Z,6944
2018-05-21T10:34:09.268Z,6972
2018-05-21T10:35:09.589Z,6984
2018-05-21T10:36:09.537Z,7032
2018-05-21T10:37:08.877Z,7084
2018-05-21T10:38:09.255Z,7040
2018-05-21T10:39:09.022Z,6972
2018-05-21T10:40:09.530Z,7100
2018-05-21T10:41:09.559Z,7236
2018-05-21T10:42:10.006Z,7296
2018-05-21T10:43:09.276Z,7564
2018-05-21T10:44:09.279Z,8028
2018-05-21T10:45:09.276Z,9020
2018-05-21T10:46:09.311Z,10520
2018-05-21T10:47:09.281Z,11804
2018-05-21T10:48:09.577Z,10756
2018-05-21T10:49:09.269Z,9052
2018-05-21T10:50:09.562Z,8016
2018-05-21T10:51:09.583Z,7248
2018-05-21T10:52:09.296Z,6828
2018-05-21T10:53:09.310Z,6920
2018-05-21T10:54:09.056Z,6720
2018-05-21T10:55:09.559Z,6696
2018-05-21T10:56:09.751Z,6752
2018-05-21T10:57:09.518Z,6900
2018-05-21T10:58:08.780Z,7084
2018-05-21T10:59:09.029Z,7352
2018-05-21T11:00:09.549Z,7512
2018-05-21T11:01:09.261Z,7532
2018-05-21T11:02:09.540Z,7524
2018-05-21T11:03:09.296Z,7680
2018-05-21T11:04:09.309Z,7928
2018-05-21T11:05:09.273Z,8132
2018-05-21T11:06:09.301Z,8224
2018-05-21T11:07:09.521Z,8248
2018-05-21T11:08:09.289Z,8280
2018-05-21T11:09:09.263Z,8088
2018-05-21T11:10:09.578Z,7996
2018-05-21T11:11:09.317Z,7928
2018-05-21T11:12:09.976Z,8004
2018-05-21T11:13:09.282Z,8140
2018-05-21T11:14:09.540Z,8316
2018-05-21T11:15:09.286Z,8512
2018-05-21T11:16:09.564Z,8696
2018-05-21T11:17:09.298Z,8936
2018-05-21T11:18:09.486Z,9272
2018-05-21T11:19:09.288Z,10036
2018-05-21T11:20:09.289Z,10116
2018-05-21T11:21:09.062Z,10096
2018-05-21T11:22:09.517Z,10336
2018-05-21T11:23:09.325Z,10556
2018-05-21T11:24:09.310Z,10816
2018-05-21T11:25:09.267Z,11236
2018-05-21T11:26:09.311Z,11668
2018-05-21T11:27:09.042Z,12204
2018-05-21T11:28:09.309Z,12724
2018-05-21T11:29:09.525Z,13016
2018-05-21T11:30:09.271Z,12524
2018-05-21T11:31:09.565Z,12516
2018-05-21T11:32:09.743Z,12640
2018-05-21T11:33:09.313Z,13412
2018-05-21T11:34:09.034Z,13676
2018-05-21T11:35:09.303Z,14296
2018-05-21T11:36:09.286Z,14876
2018-05-21T11:37:09.064Z,15608
2018-05-21T11:38:09.042Z,15784
2018-05-21T11:39:08.820Z,15904
2018-05-21T11:40:09.557Z,15684
2018-05-21T11:41:09.897Z,15572
2018-05-21T11:42:09.298Z,15516
2018-05-21T11:43:09.561Z,15508
2018-05-21T11:44:09.724Z,15636
2018-05-21T11:45:09.342Z,15420
2018-05-21T11:46:09.343Z,15044
2018-05-21T11:47:09.325Z,14668
2018-05-21T11:48:09.562Z,14432
2018-05-21T11:49:09.830Z,14276
2018-05-21T11:50:09.326Z,14532
2018-05-21T11:51:09.602Z,15052
2018-05-21T11:52:09.305Z,14932
2018-05-21T11:53:09.351Z,15152
2018-05-21T11:54:09.570Z,15480
2018-05-21T11:55:09.618Z,15104
2018-05-21T11:56:09.350Z,14900
2018-05-21T11:57:09.357Z,15000
2018-05-21T11:58:08.832Z,14716
2018-05-21T11:59:09.337Z,14484
2018-05-21T12:00:09.076Z,14680
2018-05-21T12:01:09.369Z,15444
2018-05-21T12:02:09.519Z,16224
2018-05-21T12:03:09.609Z,16256
2018-05-21T12:04:09.597Z,16052
2018-05-21T12:05:09.331Z,16256
2018-05-21T12:06:09.375Z,16608
2018-05-21T12:07:09.352Z,17056
2018-05-21T12:08:09.139Z,17504
2018-05-21T12:09:09.180Z,17536
2018-05-21T12:10:09.385Z,17856
2018-05-21T12:11:09.617Z,17568
2018-05-21T12:12:09.400Z,17120
2018-05-21T12:13:09.616Z,16224
2018-05-21T12:14:09.673Z,15048
2018-05-21T12:15:09.140Z,14396
2018-05-21T12:16:09.636Z,14084
2018-05-21T12:17:09.677Z,13844
2018-05-21T12:18:09.407Z,13616
2018-05-21T12:19:09.643Z,13396
2018-05-21T12:20:09.653Z,13196
2018-05-21T12:21:09.642Z,13056
2018-05-21T12:22:09.460Z,12796
2018-05-21T12:23:09.668Z,12484
2018-05-21T12:24:09.174Z,12224
2018-05-21T12:25:09.412Z,12096
2018-05-21T12:26:09.919Z,11964
2018-05-21T12:27:09.650Z,11600
2018-05-21T12:28:09.744Z,11940
2018-05-21T12:29:09.658Z,12024
2018-05-21T12:30:09.789Z,11980
2018-05-21T12:31:09.443Z,11780
2018-05-21T12:32:09.462Z,11688
2018-05-21T12:33:09.411Z,11472
2018-05-21T12:34:09.427Z,11220
2018-05-21T12:35:09.280Z,11244
2018-05-21T12:36:09.460Z,11232
2018-05-21T12:37:09.473Z,11348
2018-05-21T12:38:10.000Z,11372
2018-05-21T12:39:09.509Z,11448
2018-05-21T12:40:09.731Z,11640
2018-05-21T12:41:09.431Z,11680
2018-05-21T12:42:09.481Z,11888
2018-05-21T12:43:09.435Z,11624
2018-05-21T12:44:09.212Z,11348
2018-05-21T12:45:09.696Z,10908
2018-05-21T12:46:09.752Z,10708
2018-05-21T12:47:09.482Z,10656
2018-05-21T12:48:09.482Z,10700
2018-05-21T12:49:09.456Z,10200
2018-05-21T12:50:09.468Z,9868
2018-05-21T12:51:09.745Z,9664
2018-05-21T12:52:09.511Z,9584
2018-05-21T12:53:09.462Z,9476
2018-05-21T12:54:09.511Z,9396
2018-05-21T12:55:09.756Z,9340
2018-05-21T12:56:09.513Z,9312
2018-05-21T12:57:09.480Z,9248
2018-05-21T12:58:09.524Z,9180
2018-05-21T12:59:09.478Z,9148
2018-05-21T13:00:09.254Z,9096
2018-05-21T13:01:09.476Z,9040
2018-05-21T13:02:09.803Z,9084
2018-05-21T13:03:09.776Z,9172
2018-05-21T13:04:09.524Z,9308
2018-05-21T13:05:09.337Z,9476
2018-05-21T13:06:09.811Z,9672
2018-05-21T13:07:09.516Z,9800
2018-05-21T13:08:09.523Z,9468
2018-05-21T13:09:09.492Z,8944
2018-05-21T13:10:09.550Z,8568
2018-05-21T13:11:09.524Z,8400
2018-05-21T13:12:09.826Z,8600
2018-05-21T13:13:09.499Z,8400
2018-05-21T13:14:09.817Z,8204
2018-05-21T13:15:09.791Z,8104
2018-05-21T13:16:09.580Z,7984
2018-05-21T13:17:09.862Z,7936
2018-05-21T13:18:09.884Z,7932
2018-05-21T13:19:09.807Z,7876
2018-05-21T13:20:09.809Z,7924
2018-05-21T13:21:09.767Z,7892
2018-05-21T13:22:09.520Z,7820
2018-05-21T13:23:09.795Z,7796
2018-05-21T13:24:10.398Z,7800